createdAt,value
2018-12-17T00:01:16.277Z,100321.70
2018-12-17T00:03:45.354Z,100321.23
2018-12-17T00:06:14.521Z,100318.01
2018-12-17T00:08:43.663Z,100323.72
2018-12-17T00:11:12.799Z,100318.08
2018-12-17T00:13:41.881Z,100316.75
2018-12-17T00:16:10.976Z,100329.38
2018-12-17T00:18:40.074Z,100328.30
2018-12-17T00:21:09.195Z,100331.35
2018-12-17T00:23:38.294Z,100332.09
2018-12-17T00:26:07.408Z,100335.13
2018-12-17T00:28:36.477Z,100332.78
2018-12-17T00:31:05.601Z,100330.30
2018-12-17T00:33:35.425Z,100327.69
2018-12-17T00:36:04.575Z,100318.95
2018-12-17T00:38:33.656Z,100318.98
2018-12-17T00:41:02.775Z,100316.68
2018-12-17T00:43:32.139Z,100319.63
2018-12-17T00:46:01.273Z,100325.00
2018-12-17T00:48:30.418Z,100324.33
2018-12-17T00:50:59.504Z,100323.27
2018-12-17T00:53:28.633Z,100325.92
2018-12-17T00:55:57.739Z,100327.07
2018-12-17T00:58:26.873Z,100327.82
2018-12-17T01:00:55.997Z,100322.73
2018-12-17T01:03:25.113Z,100326.59
2018-12-17T01:05:54.206Z,100320.45
2018-12-17T01:08:23.334Z,100319.67
2018-12-17T01:10:52.447Z,100322.69
2018-12-17T01:13:21.549Z,100324.73
2018-12-17T01:15:50.653Z,100321.51
2018-12-17T01:18:19.793Z,100320.93
2018-12-17T01:20:48.919Z,100323.38
2018-12-17T01:23:18.019Z,100319.27
2018-12-17T01:25:47.129Z,100316.04
2018-12-17T01:28:22.120Z,100311.11
2018-12-17T01:30:48.074Z,100313.49
2018-12-17T01:33:17.190Z,100313.94
2018-12-17T01:35:46.298Z,100308.27
2018-12-17T01:38:15.407Z,100310.88
2018-12-17T01:40:44.533Z,100305.83
2018-12-17T01:43:13.637Z,100299.58
2018-12-17T01:45:42.742Z,100302.59
2018-12-17T01:48:12.365Z,100300.08
2018-12-17T01:50:41.552Z,100302.36
2018-12-17T01:53:10.661Z,100305.41
2018-12-17T01:55:39.782Z,100305.52
2018-12-17T01:58:08.926Z,100297.38
2018-12-17T02:00:38.029Z,100296.11
2018-12-17T02:03:07.335Z,100301.81
2018-12-17T02:05:36.428Z,100300.12
2018-12-17T02:08:05.530Z,100299.98
2018-12-17T02:10:34.626Z,100296.62
2018-12-17T02:13:03.732Z,100296.83
2018-12-17T02:15:32.853Z,100292.28
2018-12-17T02:18:02.011Z,100290.11
2018-12-17T02:20:31.098Z,100290.95
2018-12-17T02:23:00.465Z,100291.91
2018-12-17T02:25:29.578Z,100291.30
2018-12-17T02:27:58.677Z,100289.26
2018-12-17T02:30:27.772Z,100287.73
2018-12-17T02:32:56.898Z,100286.78
2018-12-17T02:35:26.011Z,100283.59
2018-12-17T02:37:55.169Z,100284.34
2018-12-17T02:40:24.769Z,100288.27
2018-12-17T02:42:53.880Z,100288.98
2018-12-17T02:45:23.007Z,100292.00
2018-12-17T02:47:52.118Z,100286.58
2018-12-17T02:50:21.236Z,100291.80
2018-12-17T02:52:50.352Z,100282.44
2018-12-17T02:55:19.445Z,100275.81
2018-12-17T02:57:48.586Z,100276.94
2018-12-17T03:00:17.692Z,100276.39
2018-12-17T03:02:46.823Z,100272.38
2018-12-17T03:05:15.934Z,100273.34
2018-12-17T03:07:45.062Z,100271.84
2018-12-17T03:10:14.155Z,100280.25
2018-12-17T03:12:43.238Z,100270.98
2018-12-17T03:15:12.326Z,100273.29
2018-12-17T03:17:41.409Z,100274.14
2018-12-17T03:20:10.511Z,100276.41
2018-12-17T03:22:39.650Z,100277.91
2018-12-17T03:25:08.740Z,100274.06
2018-12-17T03:27:37.819Z,100277.37
2018-12-17T03:30:07.333Z,100274.98
2018-12-17T03:32:36.563Z,100271.08
2018-12-17T03:35:05.705Z,100266.28
2018-12-17T03:37:34.809Z,100270.09
2018-12-17T03:40:03.930Z,100266.28
2018-12-17T03:42:33.039Z,100262.09
2018-12-17T03:45:02.136Z,100258.33
2018-12-17T03:47:31.234Z,100261.52
2018-12-17T03:50:00.391Z,100256.69
2018-12-17T03:52:29.500Z,100255.60
2018-12-17T03:54:58.573Z,100257.17
2018-12-17T03:57:27.688Z,100253.38
2018-12-17T03:59:56.784Z,100260.61
2018-12-17T04:02:25.938Z,100253.25
2018-12-17T04:04:55.290Z,100256.05
2018-12-17T04:07:24.592Z,100260.03
2018-12-17T04:09:53.711Z,100262.75
2018-12-17T04:12:22.801Z,100263.26
2018-12-17T04:14:51.929Z,100271.08
2018-12-17T04:17:21.032Z,100260.23
2018-12-17T04:19:50.139Z,100254.73
2018-12-17T04:22:19.293Z,100256.08
2018-12-17T04:24:48.402Z,100256.72
2018-12-17T04:27:17.512Z,100258.99
2018-12-17T04:29:46.606Z,100262.76
2018-12-17T04:32:15.713Z,100265.25
2018-12-17T04:34:44.836Z,100264.95
2018-12-17T04:37:13.913Z,100272.73
2018-12-17T04:39:43.011Z,100270.25
2018-12-17T04:42:12.110Z,100267.87
2018-12-17T04:44:41.261Z,100267.13
2018-12-17T04:47:10.386Z,100276.19
2018-12-17T04:49:39.522Z,100275.18
2018-12-17T04:52:08.620Z,100278.35
2018-12-17T04:54:37.742Z,100271.49
2018-12-17T04:57:06.836Z,100267.69
2018-12-17T04:59:35.959Z,100276.69
2018-12-17T05:02:05.598Z,100276.58
2018-12-17T05:04:34.772Z,100281.98
2018-12-17T05:07:03.908Z,100297.39
2018-12-17T05:09:33.045Z,100295.59
2018-12-17T05:12:02.163Z,100296.92
2018-12-17T05:14:31.280Z,100307.11
2018-12-17T05:17:00.404Z,100309.08
2018-12-17T05:19:29.505Z,100302.66
2018-12-17T05:21:59.053Z,100298.52
2018-12-17T05:24:28.158Z,100300.77
2018-12-17T05:26:57.282Z,100302.66
2018-12-17T05:29:26.402Z,100301.72
2018-12-17T05:31:55.503Z,100295.47
2018-12-17T05:34:24.632Z,100296.22
2018-12-17T05:36:53.743Z,100303.17
2018-12-17T05:39:22.863Z,100296.25
2018-12-17T05:41:51.969Z,100293.98
2018-12-17T05:44:21.070Z,100297.20
2018-12-17T05:46:50.447Z,100300.45
2018-12-17T05:49:19.598Z,100301.17
2018-12-17T05:51:48.716Z,100298.25
2018-12-17T05:54:17.888Z,100301.81
2018-12-17T05:56:47.066Z,100300.86
2018-12-17T05:59:16.674Z,100301.81
2018-12-17T06:01:45.903Z,100305.72
2018-12-17T06:04:15.112Z,100304.97
2018-12-17T06:06:44.211Z,100306.57
2018-12-17T06:09:13.947Z,100307.59
2018-12-17T06:11:43.122Z,100300.97
2018-12-17T06:14:12.224Z,100305.31
2018-12-17T06:16:41.339Z,100305.95
2018-12-17T06:19:10.463Z,100312.34
2018-12-17T06:21:39.651Z,100309.97
2018-12-17T06:24:08.725Z,100310.91
2018-12-17T06:26:37.844Z,100307.52
2018-12-17T06:29:06.958Z,100302.22
2018-12-17T06:31:36.049Z,100306.16
2018-12-17T06:34:05.160Z,100307.28
2018-12-17T06:36:34.219Z,100300.08
2018-12-17T06:39:04.727Z,100301.34
2018-12-17T06:41:33.820Z,100307.75
2018-12-17T06:44:02.939Z,100309.22
2018-12-17T06:46:32.041Z,100309.52
2018-12-17T06:49:01.130Z,100304.59
2018-12-17T06:51:30.617Z,100307.52
2018-12-17T06:53:59.714Z,100311.32
2018-12-17T06:56:28.808Z,100303.57
2018-12-17T06:58:57.889Z,100303.81
2018-12-17T07:01:28.172Z,100305.27
2018-12-17T07:03:57.543Z,100310.84
2018-12-17T07:06:27.293Z,100302.14
2018-12-17T07:08:56.436Z,100310.02
2018-12-17T07:11:25.972Z,100313.31
2018-12-17T07:13:55.092Z,100305.16
2018-12-17T07:16:24.189Z,100311.70
2018-12-17T07:18:54.315Z,100310.38
2018-12-17T07:21:23.455Z,100318.98
2018-12-17T07:23:52.542Z,100313.89
2018-12-17T07:26:21.631Z,100317.16
2018-12-17T07:28:50.750Z,100324.55
2018-12-17T07:31:19.902Z,100326.14
2018-12-17T07:33:49.008Z,100328.92
2018-12-17T07:36:18.216Z,100325.40
2018-12-17T07:38:47.348Z,100322.51
2018-12-17T07:41:16.462Z,100326.72
2018-12-17T07:43:45.607Z,100322.88
2018-12-17T07:46:14.716Z,100317.36
2018-12-17T07:48:43.821Z,100324.73
2018-12-17T07:51:12.917Z,100327.52
2018-12-17T07:53:42.028Z,100329.37
2018-12-17T07:56:11.121Z,100329.73
2018-12-17T07:58:40.217Z,100326.45
2018-12-17T08:01:09.321Z,100321.89
2018-12-17T08:03:38.402Z,100326.47
2018-12-17T08:06:07.514Z,100328.05
2018-12-17T08:08:36.610Z,100324.28
2018-12-17T08:11:05.704Z,100329.20
2018-12-17T08:13:34.813Z,100327.76
2018-12-17T08:16:03.982Z,100337.16
2018-12-17T08:18:33.086Z,100334.62
2018-12-17T08:21:02.201Z,100333.77
2018-12-17T08:23:31.309Z,100341.98
2018-12-17T08:26:00.452Z,100334.25
2018-12-17T08:28:29.577Z,100339.07
2018-12-17T08:30:58.712Z,100346.44
2018-12-17T08:33:27.781Z,100347.55
2018-12-17T08:35:57.067Z,100350.70
2018-12-17T08:38:26.171Z,100344.45
2018-12-17T08:40:55.259Z,100345.41
2018-12-17T08:43:24.360Z,100345.96
2018-12-17T08:45:53.476Z,100340.05
2018-12-17T08:48:22.584Z,100340.16
2018-12-17T08:50:51.687Z,100341.14
2018-12-17T08:53:20.805Z,100328.05
2018-12-17T08:55:50.006Z,100327.58
2018-12-17T08:58:19.286Z,100325.03
2018-12-17T09:00:48.446Z,100324.84
2018-12-17T09:03:17.547Z,100325.60
2018-12-17T09:05:46.669Z,100324.49
2018-12-17T09:08:15.767Z,100320.52
2018-12-17T09:10:44.912Z,100319.03
2018-12-17T09:13:14.089Z,100313.36
2018-12-17T09:15:43.269Z,100310.28
2018-12-17T09:18:12.360Z,100308.35
2018-12-17T09:20:41.470Z,100306.00
2018-12-17T09:23:10.601Z,100301.44
2018-12-17T09:25:39.816Z,100299.11
2018-12-17T09:28:08.941Z,100299.64
2018-12-17T09:30:41.277Z,100294.67
2018-12-17T09:33:09.204Z,100288.95
2018-12-17T09:35:38.364Z,100284.60
2018-12-17T09:38:07.485Z,100281.47
2018-12-17T09:40:36.593Z,100277.99
2018-12-17T09:43:05.688Z,100276.44
2018-12-17T09:45:34.882Z,100278.09
2018-12-17T09:48:03.982Z,100276.28
2018-12-17T09:50:33.121Z,100282.53
2018-12-17T09:53:02.256Z,100283.12
2018-12-17T09:55:31.379Z,100279.14
2018-12-17T09:58:00.473Z,100275.80
2018-12-17T10:00:29.622Z,100269.16
2018-12-17T10:02:58.698Z,100260.00
2018-12-17T10:05:27.833Z,100262.34
2018-12-17T10:07:57.856Z,100260.02
2018-12-17T10:10:26.969Z,100258.09
2018-12-17T10:12:56.094Z,100253.81
2018-12-17T10:15:25.211Z,100242.69
2018-12-17T10:17:54.312Z,100247.20
2018-12-17T10:20:23.490Z,100240.30
2018-12-17T10:22:52.584Z,100240.61
2018-12-17T10:25:21.693Z,100241.09
2018-12-17T10:27:50.813Z,100234.73
2018-12-17T10:30:19.915Z,100226.92
2018-12-17T10:32:49.061Z,100226.04
2018-12-17T10:35:18.184Z,100225.01
2018-12-17T10:37:47.327Z,100221.66
2018-12-17T10:40:16.473Z,100215.36
2018-12-17T10:42:45.609Z,100211.02
2018-12-17T10:45:14.725Z,100212.45
2018-12-17T10:47:43.833Z,100207.14
2018-12-17T10:50:12.933Z,100202.80
2018-12-17T10:52:42.025Z,100208.80
2018-12-17T10:55:11.135Z,100204.97
2018-12-17T10:57:40.249Z,100203.87
2018-12-17T11:00:14.262Z,100197.23
2018-12-17T11:02:43.409Z,100201.36
2018-12-17T11:05:15.138Z,100194.95
2018-12-17T11:07:44.266Z,100193.41
2018-12-17T11:10:13.393Z,100194.14
2018-12-17T11:15:26.020Z,100197.23
2018-12-17T11:17:55.131Z,100198.70
2018-12-17T11:20:24.648Z,100193.59
2018-12-17T11:22:54.001Z,100187.43
2018-12-17T11:25:23.090Z,100177.52
2018-12-17T11:27:52.284Z,100178.41
2018-12-17T11:30:21.377Z,100177.45
2018-12-17T11:32:50.480Z,100184.67
2018-12-17T11:35:19.585Z,100187.33
2018-12-17T11:37:48.709Z,100187.21
2018-12-17T11:40:17.833Z,100190.97
2018-12-17T11:42:46.957Z,100188.06
2018-12-17T11:45:16.101Z,100186.58
2018-12-17T11:47:45.197Z,100190.72
2018-12-17T11:50:14.346Z,100190.35
2018-12-17T11:52:43.592Z,100197.08
2018-12-17T11:55:12.705Z,100200.95
2018-12-17T11:57:55.078Z,100201.64
2018-12-17T12:00:26.174Z,100196.50
2018-12-17T12:02:59.109Z,100197.87
2018-12-17T12:06:29.634Z,100197.81
2018-12-17T12:08:58.757Z,100189.31
2018-12-17T12:11:27.908Z,100198.86
2018-12-17T12:13:57.013Z,100198.86
2018-12-17T12:16:26.138Z,100203.42
2018-12-17T12:18:55.341Z,100201.27
2018-12-17T12:21:24.495Z,100204.92
2018-12-17T12:23:53.602Z,100205.24
2018-12-17T12:26:22.796Z,100204.34
2018-12-17T12:28:51.895Z,100209.18
2018-12-17T12:31:21.036Z,100214.63
2018-12-17T12:33:50.200Z,100215.95
2018-12-17T12:36:21.838Z,100222.00
2018-12-17T12:38:50.952Z,100222.73
2018-12-17T12:41:20.234Z,100235.00
2018-12-17T12:43:49.330Z,100233.19
2018-12-17T12:46:20.770Z,100224.02
2018-12-17T12:48:49.883Z,100225.70
2018-12-17T12:51:19.140Z,100228.56
2018-12-17T12:53:48.246Z,100227.73
2018-12-17T12:56:17.391Z,100229.67
2018-12-17T12:58:46.597Z,100228.41
2018-12-17T13:01:15.757Z,100230.36
2018-12-17T13:03:44.867Z,100233.37
2018-12-17T13:06:13.991Z,100229.27
2018-12-17T13:08:43.087Z,100236.30
2018-12-17T13:11:12.222Z,100238.22
2018-12-17T13:13:41.329Z,100244.47
2018-12-17T13:16:10.471Z,100244.21
2018-12-17T13:18:39.564Z,100241.67
2018-12-17T13:21:08.674Z,100252.27
2018-12-17T13:23:37.833Z,100256.25
2018-12-17T13:26:06.964Z,100256.14
2018-12-17T13:28:36.080Z,100258.98
2018-12-17T13:31:05.213Z,100261.72
2018-12-17T13:33:34.325Z,100262.66
2018-12-17T13:36:04.202Z,100257.48
2018-12-17T13:38:33.325Z,100260.42
2018-12-17T13:41:02.463Z,100264.16
2018-12-17T13:43:31.565Z,100271.02
2018-12-17T13:46:00.746Z,100272.45
2018-12-17T13:48:29.908Z,100271.28
2018-12-17T13:51:03.036Z,100266.30
2018-12-17T13:53:33.036Z,100264.58
2018-12-17T13:56:02.279Z,100266.28
2018-12-17T13:58:31.424Z,100272.16
2018-12-17T14:01:00.522Z,100270.54
2018-12-17T14:03:29.682Z,100276.20
2018-12-17T14:05:58.904Z,100277.33
2018-12-17T14:08:28.034Z,100279.62
2018-12-17T14:10:57.916Z,100277.83
2018-12-17T14:13:27.045Z,100288.22
2018-12-17T14:16:01.242Z,100285.20
2018-12-17T14:18:35.347Z,100283.33
2018-12-17T14:21:09.545Z,100283.33
2018-12-17T14:23:38.662Z,100287.58
2018-12-17T14:26:07.785Z,100290.98
2018-12-17T14:28:36.934Z,100288.95
2018-12-17T14:31:06.032Z,100290.95
2018-12-17T14:33:35.117Z,100290.58
2018-12-17T14:36:09.222Z,100299.20
2018-12-17T14:38:39.534Z,100301.61
2018-12-17T14:41:08.660Z,100295.77
2018-12-17T14:43:37.768Z,100298.34
2018-12-17T14:46:06.865Z,100299.09
2018-12-17T14:48:35.998Z,100308.94
2018-12-17T14:51:05.100Z,100306.50
2018-12-17T14:53:34.216Z,100309.76
2018-12-17T14:56:03.338Z,100306.30
2018-12-17T14:58:32.544Z,100306.19
2018-12-17T15:01:01.692Z,100310.84
2018-12-17T15:03:30.798Z,100319.13
2018-12-17T15:05:59.917Z,100321.67
2018-12-17T15:08:29.008Z,100328.02
2018-12-17T15:10:58.131Z,100328.77
2018-12-17T15:13:27.270Z,100335.22
2018-12-17T15:15:56.376Z,100331.99
2018-12-17T15:18:25.523Z,100337.66
2018-12-17T15:20:54.658Z,100341.63
2018-12-17T15:23:23.861Z,100339.52
2018-12-17T15:25:52.962Z,100343.77
2018-12-17T15:28:22.068Z,100348.31
2018-12-17T15:30:51.170Z,100351.10
2018-12-17T15:33:20.317Z,100355.08
2018-12-17T15:35:49.485Z,100357.89
2018-12-17T15:38:18.594Z,100353.92
2018-12-17T15:40:47.726Z,100353.83
2018-12-17T15:43:16.853Z,100362.62
2018-12-17T15:45:46.024Z,100364.31
2018-12-17T15:48:15.132Z,100368.66
2018-12-17T15:50:44.229Z,100368.66
2018-12-17T15:53:13.384Z,100370.39
2018-12-17T15:55:42.483Z,100365.58
2018-12-17T15:58:11.573Z,100377.23
2018-12-17T16:00:40.659Z,100377.44
2018-12-17T16:03:09.754Z,100380.66
2018-12-17T16:05:38.864Z,100384.58
2018-12-17T16:08:07.948Z,100380.20
2018-12-17T16:10:37.082Z,100383.94
2018-12-17T16:13:06.205Z,100386.86
2018-12-17T16:15:35.452Z,100376.92
2018-12-17T16:18:04.533Z,100389.20
2018-12-17T16:20:33.637Z,100388.66
2018-12-17T16:23:02.786Z,100392.49
2018-12-17T16:25:31.888Z,100395.98
2018-12-17T16:28:01.017Z,100398.73
2018-12-17T16:30:30.117Z,100405.18
2018-12-17T16:32:59.271Z,100410.00
2018-12-17T16:35:28.469Z,100406.13
2018-12-17T16:37:57.625Z,100419.22
2018-12-17T16:40:26.957Z,100418.02
2018-12-17T16:42:56.138Z,100426.16
2018-12-17T16:45:25.635Z,100427.31
2018-12-17T16:47:54.745Z,100432.46
2018-12-17T16:50:23.841Z,100435.05
2018-12-17T16:52:53.012Z,100439.41
2018-12-17T16:55:22.209Z,100437.93
2018-12-17T16:57:51.341Z,100438.78
2018-12-17T17:00:21.420Z,100442.84
2018-12-17T17:02:50.617Z,100451.27
2018-12-17T17:05:19.710Z,100445.12
2018-12-17T17:07:50.367Z,100444.08
2018-12-17T17:10:19.491Z,100445.12
2018-12-17T17:12:48.890Z,100449.00
2018-12-17T17:15:18.045Z,100451.08
2018-12-17T17:17:47.178Z,100458.44
2018-12-17T17:20:16.320Z,100454.30
2018-12-17T17:22:45.411Z,100457.14
2018-12-17T17:25:14.544Z,100459.41
2018-12-17T17:27:43.668Z,100461.73
2018-12-17T17:30:12.845Z,100459.08
2018-12-17T17:32:41.937Z,100464.28
2018-12-17T17:35:11.097Z,100460.45
2018-12-17T17:37:40.196Z,100460.08
2018-12-17T17:40:09.317Z,100470.30
2018-12-17T17:42:38.430Z,100470.30
2018-12-17T17:45:07.570Z,100467.27
2018-12-17T17:47:36.775Z,100473.31
2018-12-17T17:50:06.610Z,100473.59
2018-12-17T17:52:35.869Z,100468.82
2018-12-17T17:55:05.254Z,100474.02
2018-12-17T17:57:34.363Z,100478.08
2018-12-17T18:00:03.481Z,100480.13
2018-12-17T18:02:32.633Z,100483.76
2018-12-17T18:05:01.776Z,100484.61
2018-12-17T18:07:30.869Z,100484.56
2018-12-17T18:10:00.025Z,100484.81
2018-12-17T18:12:30.003Z,100489.48
2018-12-17T18:14:59.209Z,100491.43
2018-12-17T18:17:28.942Z,100489.48
2018-12-17T18:19:58.092Z,100497.14
2018-12-17T18:22:27.218Z,100503.34
2018-12-17T18:24:57.877Z,100509.81
2018-12-17T18:27:27.611Z,100505.18
2018-12-17T18:29:57.073Z,100507.36
2018-12-17T18:32:28.061Z,100513.26
2018-12-17T18:34:57.983Z,100511.74
2018-12-17T18:37:27.091Z,100509.06
2018-12-17T18:39:56.192Z,100512.84
2018-12-17T18:42:25.274Z,100514.07
2018-12-17T18:44:54.388Z,100517.61
2018-12-17T18:47:25.891Z,100510.45
2018-12-17T18:49:54.752Z,100517.92
2018-12-17T18:52:23.863Z,100517.80
2018-12-17T18:54:52.985Z,100518.11
2018-12-17T18:57:22.197Z,100513.11
2018-12-17T18:59:51.345Z,100518.59
2018-12-17T19:02:20.433Z,100513.89
2018-12-17T19:04:49.565Z,100515.13
2018-12-17T19:07:18.717Z,100520.10
2018-12-17T19:09:47.833Z,100520.38
2018-12-17T19:12:16.949Z,100525.95
2018-12-17T19:14:46.038Z,100522.14
2018-12-17T19:17:15.176Z,100522.37
2018-12-17T19:19:44.271Z,100522.94
2018-12-17T19:22:13.371Z,100524.06
2018-12-17T19:24:45.230Z,100524.06
2018-12-17T19:27:15.375Z,100523.84
2018-12-17T19:29:44.505Z,100525.02
2018-12-17T19:32:13.611Z,100526.12
2018-12-17T19:34:42.763Z,100531.79
2018-12-17T19:37:14.129Z,100535.09
2018-12-17T19:39:44.783Z,100535.44
2018-12-17T19:42:14.437Z,100544.23
2018-12-17T19:44:43.594Z,100551.80
2018-12-17T19:47:12.690Z,100546.59
2018-12-17T19:49:41.886Z,100545.78
2018-12-17T19:52:11.050Z,100550.31
2018-12-17T19:54:40.157Z,100552.33
2018-12-17T19:57:09.243Z,100556.37
2018-12-17T19:59:38.348Z,100553.16
2018-12-17T20:02:07.016Z,100564.30
2018-12-17T20:04:36.161Z,100563.93
2018-12-17T20:07:05.251Z,100564.25
2018-12-17T20:09:34.451Z,100575.28
2018-12-17T20:12:03.527Z,100569.19
2018-12-17T20:14:32.626Z,100571.46
2018-12-17T20:17:01.778Z,100564.47
2018-12-17T20:19:32.081Z,100573.89
2018-12-17T20:22:02.350Z,100569.53
2018-12-17T20:24:31.486Z,100569.76
2018-12-17T20:27:00.605Z,100573.92
2018-12-17T20:29:29.748Z,100569.19
2018-12-17T20:31:58.836Z,100579.78
2018-12-17T20:34:27.975Z,100576.19
2018-12-17T20:36:57.094Z,100580.00
2018-12-17T20:39:26.208Z,100578.33
2018-12-17T20:41:55.374Z,100528.59
2018-12-17T20:44:24.510Z,100580.98
2018-12-17T20:46:53.624Z,100579.44
2018-12-17T20:49:22.728Z,100575.30
2018-12-17T20:51:51.949Z,100574.55
2018-12-17T20:54:21.100Z,100578.90
2018-12-17T20:56:50.191Z,100584.44
2018-12-17T20:59:19.297Z,100586.62
2018-12-17T21:01:48.409Z,100588.54
2018-12-17T21:04:17.502Z,100590.34
2018-12-17T21:06:49.936Z,100590.24
2018-12-17T21:09:17.782Z,100585.98
2018-12-17T21:11:46.890Z,100588.54
2018-12-17T21:14:16.019Z,100588.79
2018-12-17T21:16:45.148Z,100591.81
2018-12-17T21:19:14.272Z,100592.51
2018-12-17T21:21:43.369Z,100592.89
2018-12-17T21:24:12.493Z,100592.13
2018-12-17T21:26:41.588Z,100585.23
2018-12-17T21:29:10.680Z,100594.78
2018-12-17T21:31:39.762Z,100594.40
2018-12-17T21:34:08.861Z,100591.17
2018-12-17T21:36:37.982Z,100593.83
2018-12-17T21:39:08.137Z,100598.02
2018-12-17T21:41:37.222Z,100602.92
2018-12-17T21:44:06.312Z,100598.02
2018-12-17T21:46:35.403Z,100599.50
2018-12-17T21:49:04.506Z,100597.80
2018-12-17T21:51:33.600Z,100596.48
2018-12-17T21:54:02.689Z,100602.34
2018-12-17T21:56:32.057Z,100590.34
2018-12-17T21:59:01.155Z,100591.81
2018-12-17T22:01:30.243Z,100595.89
2018-12-17T22:03:59.329Z,100590.38
2018-12-17T22:06:28.422Z,100595.03
2018-12-17T22:08:57.538Z,100593.40
2018-12-17T22:11:26.655Z,100590.02
2018-12-17T22:13:55.753Z,100587.59
2018-12-17T22:16:24.869Z,100591.38
2018-12-17T22:18:53.953Z,100599.31
2018-12-17T22:21:23.044Z,100604.67
2018-12-17T22:23:52.153Z,100599.66
2018-12-17T22:26:21.237Z,100603.35
2018-12-17T22:28:50.332Z,100606.75
2018-12-17T22:31:19.414Z,100598.75
2018-12-17T22:33:48.526Z,100608.58
2018-12-17T22:36:17.636Z,100608.20
2018-12-17T22:38:46.716Z,100608.67
2018-12-17T22:41:15.809Z,100610.19
2018-12-17T22:43:44.908Z,100607.25
2018-12-17T22:46:14.025Z,100613.67
2018-12-17T22:48:43.148Z,100613.11
2018-12-17T22:51:12.224Z,100606.87
2018-12-17T22:53:41.320Z,100611.23
2018-12-17T22:56:10.432Z,100610.13
2018-12-17T22:58:42.543Z,100605.10
2018-12-17T23:01:10.683Z,100601.60
2018-12-17T23:03:39.787Z,100598.98
2018-12-17T23:06:08.904Z,100599.72
2018-12-17T23:08:41.908Z,100600.17
2018-12-17T23:11:21.934Z,100598.38
2018-12-17T23:14:01.797Z,100604.27
2018-12-17T23:16:41.526Z,100608.59
2018-12-17T23:19:09.677Z,100602.92
2018-12-17T23:21:38.804Z,100614.05
2018-12-17T23:24:08.002Z,100611.78
2018-12-17T23:26:37.112Z,100612.14
2018-12-17T23:29:06.211Z,100615.92
2018-12-17T23:31:35.356Z,100615.17
2018-12-17T23:34:04.429Z,100612.52
2018-12-17T23:36:33.556Z,100612.92
2018-12-17T23:39:02.748Z,100614.34
2018-12-17T23:41:31.849Z,100612.55
2018-12-17T23:44:00.945Z,100610.66
2018-12-17T23:46:30.057Z,100612.83
2018-12-17T23:48:59.153Z,100622.00
2018-12-17T23:51:28.244Z,100625.00
2018-12-17T23:53:57.334Z,100625.48
2018-12-17T23:56:26.476Z,100623.75
2018-12-17T23:58:55.569Z,100623.66
